Time;durP1;ratioP1;P1;durP2;ratioP2;P2;SDS_P1;SDS_P2;PMS_P1;PMS_P2;Temp;Humidity;BMP_temperature;BMP_pressure;BME280_temperature;BME280_humidity;BME280_pressure;Samples;Min_cycle;Max_cycle;Signal;HPM_P1;HPM_P2
2021/11/01 00:01:51;;;;;;;30.55;20.52;;;25.70;36.60;;;;;;6135462;28;83175;-64
2021/11/01 00:04:51;;;;;;;31.83;20.98;;;25.70;36.70;;;;;;6134761;28;83341;-64
2021/11/01 00:07:52;;;;;;;27.13;19.40;;;25.70;36.60;;;;;;6142872;28;84490;-63
2021/11/01 00:10:53;;;;;;;33.00;22.15;;;25.70;36.60;;;;;;6142345;28;83327;-63
2021/11/01 00:13:54;;;;;;;33.13;20.67;;;25.60;36.40;;;;;;6133191;28;83254;-64
2021/11/01 00:16:54;;;;;;;30.50;19.67;;;25.60;36.50;;;;;;6134435;28;83198;-65
2021/11/01 00:19:55;;;;;;;30.35;19.85;;;25.60;36.40;;;;;;6133960;28;84438;-65
2021/11/01 00:22:55;;;;;;;32.35;20.63;;;25.60;36.30;;;;;;6145446;28;83663;-65
2021/11/01 00:25:56;;;;;;;31.52;20.92;;;25.60;36.40;;;;;;6140541;28;83175;-65
2021/11/01 00:28:56;;;;;;;31.95;20.88;;;25.60;36.90;;;;;;6139228;28;85774;-65
2021/11/01 00:31:57;;;;;;;29.13;19.90;;;25.60;37.20;;;;;;6139210;28;83220;-65
2021/11/01 00:34:59;;;;;;;33.45;20.38;;;25.60;37.20;;;;;;6142634;28;83010;-65
2021/11/01 00:37:59;;;;;;;33.45;20.50;;;25.60;37.10;;;;;;6140800;28;85641;-65
2021/11/01 00:41:00;;;;;;;31.27;20.05;;;25.60;37.20;;;;;;6145635;28;82957;-65
2021/11/01 00:44:00;;;;;;;31.42;20.52;;;25.60;37.10;;;;;;6140353;28;83352;-65
2021/11/01 00:47:01;;;;;;;27.40;19.23;;;25.60;36.90;;;;;;6140406;28;84055;-64
2021/11/01 00:50:01;;;;;;;31.33;20.70;;;25.60;37.00;;;;;;6147933;28;83147;-65
2021/11/01 00:53:02;;;;;;;32.08;20.45;;;25.60;37.00;;;;;;6135940;28;83540;-65
2021/11/01 00:56:02;;;;;;;29.98;20.25;;;25.60;37.00;;;;;;6131139;28;83937;-63
2021/11/01 00:59:03;;;;;;;27.23;19.27;;;25.60;36.90;;;;;;6160030;28;83081;-64
2021/11/01 01:02:03;;;;;;;31.98;20.30;;;25.60;36.90;;;;;;6169593;28;83276;-64
2021/11/01 01:05:04;;;;;;;36.38;21.77;;;25.60;37.00;;;;;;6146794;28;83454;-64
2021/11/01 01:08:04;;;;;;;30.73;20.45;;;25.60;36.90;;;;;;6140991;28;84266;-65
2021/11/01 01:11:05;;;;;;;28.55;20.00;;;25.50;37.00;;;;;;6158362;28;83193;-65
2021/11/01 01:14:06;;;;;;;28.05;18.20;;;25.50;37.10;;;;;;6151894;28;84201;-63
2021/11/01 01:17:07;;;;;;;33.33;19.98;;;25.60;37.30;;;;;;6145634;28;83334;-64
2021/11/01 01:20:09;;;;;;;28.58;19.15;;;25.60;37.30;;;;;;6140257;28;83453;-63
2021/11/01 01:23:09;;;;;;;32.53;19.98;;;25.50;36.90;;;;;;6156008;28;83932;-66
2021/11/01 01:26:14;;;;;;;28.40;19.02;;;25.50;37.10;;;;;;6151542;28;82831;-65
2021/11/01 01:29:14;;;;;;;30.25;19.55;;;25.50;37.40;;;;;;6140081;28;83077;-66
2021/11/01 01:32:15;;;;;;;27.60;19.50;;;25.50;37.40;;;;;;6140422;28;84098;-65
2021/11/01 01:35:15;;;;;;;29.02;18.98;;;25.50;36.90;;;;;;6154886;28;83236;-65
2021/11/01 01:38:16;;;;;;;29.67;18.80;;;25.50;37.00;;;;;;6146913;28;83138;-65
2021/11/01 01:41:17;;;;;;;25.75;18.52;;;25.50;36.80;;;;;;6141008;28;83319;-66
2021/11/01 01:44:17;;;;;;;29.42;20.13;;;25.50;36.90;;;;;;6140014;28;83040;-65
2021/11/01 01:47:18;;;;;;;27.65;18.33;;;25.40;36.60;;;;;;6149180;28;83517;-64
2021/11/01 01:50:18;;;;;;;30.70;19.52;;;25.40;36.70;;;;;;6146596;28;85229;-65
2021/11/01 01:53:19;;;;;;;29.05;19.85;;;25.40;36.90;;;;;;6139076;28;83195;-65
2021/11/01 01:56:19;;;;;;;27.67;18.65;;;25.40;36.60;;;;;;6147728;28;84282;-64
2021/11/01 01:59:20;;;;;;;29.05;19.73;;;25.40;36.70;;;;;;6138609;28;83641;-65
2021/11/01 02:02:21;;;;;;;29.33;18.55;;;25.40;36.70;;;;;;6135007;28;85410;-64
2021/11/01 02:05:22;;;;;;;31.15;19.20;;;25.40;36.50;;;;;;6145171;28;83026;-64
2021/11/01 02:08:22;;;;;;;29.15;19.63;;;25.40;36.60;;;;;;6147173;28;83296;-64
2021/11/01 02:11:23;;;;;;;32.17;20.35;;;25.30;36.50;;;;;;6138819;28;83483;-63
2021/11/01 02:14:23;;;;;;;28.92;19.10;;;25.30;36.40;;;;;;6141922;28;83565;-64
2021/11/01 02:17:24;;;;;;;34.38;19.00;;;25.30;36.40;;;;;;6137451;28;83384;-64
2021/11/01 02:20:24;;;;;;;31.38;19.52;;;25.30;36.80;;;;;;6144257;28;84727;-64
2021/11/01 02:23:25;;;;;;;29.85;19.50;;;25.30;36.80;;;;;;6148974;28;83180;-64
2021/11/01 02:26:25;;;;;;;26.98;18.55;;;25.40;36.70;;;;;;6139542;28;85746;-64
2021/11/01 02:29:26;;;;;;;28.67;18.25;;;25.30;36.50;;;;;;6143907;28;82925;-64
2021/11/01 02:32:27;;;;;;;28.90;19.08;;;25.40;36.60;;;;;;6146826;28;83715;-64
2021/11/01 02:35:27;;;;;;;29.02;18.90;;;25.30;36.20;;;;;;6146773;28;83154;-64
2021/11/01 02:38:29;;;;;;;26.77;19.33;;;25.30;36.30;;;;;;6148791;28;83765;-63
2021/11/01 02:41:31;;;;;;;29.05;18.50;;;25.30;36.30;;;;;;6168437;28;83000;-64
2021/11/01 02:44:31;;;;;;;28.70;19.73;;;25.30;36.30;;;;;;6142481;28;83028;-64
2021/11/01 02:47:32;;;;;;;27.23;17.85;;;25.30;36.20;;;;;;6149186;28;83091;-64
2021/11/01 02:50:33;;;;;;;24.63;18.02;;;25.30;36.20;;;;;;6138091;28;83533;-64
2021/11/01 02:53:33;;;;;;;28.50;19.30;;;25.30;36.20;;;;;;6137687;28;84351;-64
2021/11/01 02:56:34;;;;;;;26.45;17.67;;;25.30;36.20;;;;;;6153147;28;83094;-64
2021/11/01 02:59:35;;;;;;;27.42;18.20;;;25.30;36.40;;;;;;6144163;28;83026;-64
2021/11/01 03:02:35;;;;;;;24.13;16.85;;;25.30;36.20;;;;;;6144734;28;84171;-64
2021/11/01 03:05:36;;;;;;;28.60;17.67;;;25.30;36.90;;;;;;6139558;28;83123;-63
2021/11/01 03:08:37;;;;;;;24.42;16.92;;;25.30;36.40;;;;;;6149999;28;82986;-64
2021/11/01 03:11:39;;;;;;;27.08;16.85;;;25.30;36.30;;;;;;6136613;28;83117;-64
2021/11/01 03:14:44;;;;;;;25.08;17.08;;;25.30;36.40;;;;;;6137168;28;83027;-65
2021/11/01 03:17:46;;;;;;;25.90;16.75;;;25.30;36.30;;;;;;6135253;28;87693;-65
2021/11/01 03:20:47;;;;;;;25.63;16.63;;;25.30;36.70;;;;;;6146127;28;83053;-65
2021/11/01 03:23:48;;;;;;;23.65;16.08;;;25.30;36.60;;;;;;6165060;28;84297;-65
2021/11/01 03:26:48;;;;;;;24.98;17.27;;;25.30;37.10;;;;;;6165467;28;84071;-65
2021/11/01 03:29:49;;;;;;;24.23;16.02;;;25.30;36.80;;;;;;6150515;28;84613;-65
2021/11/01 03:32:49;;;;;;;25.77;16.73;;;25.20;36.50;;;;;;6145217;28;83111;-64
2021/11/01 03:35:50;;;;;;;26.23;16.45;;;25.30;36.70;;;;;;6137891;28;86106;-64
2021/11/01 03:38:51;;;;;;;26.13;16.23;;;25.30;36.80;;;;;;6135829;28;84669;-65
2021/11/01 03:41:52;;;;;;;26.13;15.77;;;25.20;36.60;;;;;;6148881;28;83100;-64
2021/11/01 03:44:59;;;;;;;25.00;16.23;;;25.20;36.80;;;;;;6148261;28;83436;-64
2021/11/01 03:48:04;;;;;;;26.05;16.40;;;25.20;36.80;;;;;;6146446;28;82945;-65
2021/11/01 03:51:11;;;;;;;23.33;15.00;;;25.20;36.60;;;;;;6137923;28;82972;-65
2021/11/01 03:54:12;;;;;;;25.92;16.63;;;25.20;36.40;;;;;;6137353;28;83061;-65
2021/11/01 03:57:13;;;;;;;23.80;16.13;;;25.20;36.60;;;;;;6144025;28;88597;-65
2021/11/01 04:00:13;;;;;;;23.27;16.10;;;25.20;36.40;;;;;;6141953;28;83080;-65
2021/11/01 04:03:14;;;;;;;23.80;15.95;;;25.20;36.30;;;;;;6137200;28;84198;-66
2021/11/01 04:06:18;;;;;;;22.92;15.10;;;25.20;36.30;;;;;;6143512;28;83080;-64
2021/11/01 04:09:18;;;;;;;22.45;15.30;;;25.10;36.80;;;;;;6140288;28;83584;-64
2021/11/01 04:12:19;;;;;;;21.02;15.65;;;25.20;37.00;;;;;;6139023;28;84142;-64
2021/11/01 04:15:22;;;;;;;21.75;15.48;;;25.20;36.70;;;;;;6139777;28;83228;-64
2021/11/01 04:18:53;;;;;;;24.02;16.67;;;25.20;37.10;;;;;;6148084;28;89509;-65
2021/11/01 04:21:46;;;;;;;24.13;16.08;;;25.10;36.30;;;;;;6142420;28;83414;-65
2021/11/01 04:24:47;;;;;;;20.88;14.63;;;25.20;36.30;;;;;;6141575;28;83956;-65
2021/11/01 04:27:47;;;;;;;27.65;14.70;;;25.20;36.70;;;;;;6155476;28;83260;-63
2021/11/01 04:30:55;;;;;;;22.10;15.60;;;25.20;37.10;;;;;;6155912;28;83413;-65
2021/11/01 04:34:00;;;;;;;24.05;15.05;;;25.10;36.60;;;;;;6153103;28;85486;-65
2021/11/01 04:37:01;;;;;;;25.13;15.07;;;25.10;37.60;;;;;;6139461;28;83236;-66
2021/11/01 04:40:14;;;;;;;23.98;14.18;;;25.10;36.30;;;;;;6140728;28;83078;-66
2021/11/01 04:53:06;;;;;;;20.83;12.98;;;25.20;36.40;;;;;;6143123;28;83951;-66
2021/11/01 04:56:07;;;;;;;21.90;13.45;;;25.10;37.90;;;;;;6143162;28;83063;-66
2021/11/01 04:59:09;;;;;;;22.83;14.93;;;25.10;37.10;;;;;;6144457;28;89088;-65
2021/11/01 05:02:10;;;;;;;18.67;13.15;;;25.20;37.00;;;;;;6153677;28;85667;-65
2021/11/01 05:05:10;;;;;;;20.23;13.05;;;25.10;37.80;;;;;;6158099;28;83294;-64
2021/11/01 05:08:12;;;;;;;21.08;13.57;;;25.10;36.30;;;;;;6156622;28;83145;-64
2021/11/01 05:11:20;;;;;;;18.27;12.90;;;25.10;36.90;;;;;;6154008;28;83597;-64
2021/11/01 05:14:33;;;;;;;19.65;13.98;;;25.20;36.70;;;;;;6154969;28;83302;-64
2021/11/01 05:24:02;;;;;;;21.27;13.20;;;25.20;36.00;;;;;;6140548;28;83661;-60
2021/11/01 05:27:20;;;;;;;18.85;13.00;;;25.10;35.50;;;;;;6148027;28;84100;-61
2021/11/01 05:36:43;;;;;;;20.30;13.20;;;25.10;37.00;;;;;;6148573;28;83423;-62
2021/11/01 05:39:44;;;;;;;21.20;13.07;;;25.10;36.70;;;;;;6153587;28;83352;-64
2021/11/01 05:42:45;;;;;;;20.75;13.13;;;25.10;36.00;;;;;;6145805;28;84228;-61
2021/11/01 05:45:46;;;;;;;21.38;12.85;;;25.10;35.90;;;;;;6155174;28;85598;-62
2021/11/01 05:48:51;;;;;;;22.15;13.27;;;25.10;36.50;;;;;;6142617;28;83062;-62
2021/11/01 05:51:54;;;;;;;20.55;11.65;;;25.10;35.90;;;;;;6139160;28;84283;-61
2021/11/01 05:54:59;;;;;;;19.17;12.90;;;25.10;36.70;;;;;;6144136;28;83292;-62
2021/11/01 06:13:25;;;;;;;19.90;12.80;;;25.10;36.20;;;;;;6140107;28;84021;-62
2021/11/01 06:14:14;;;;;;;15.90;11.13;;;25.20;36.20;;;;;;6149162;28;83257;-62
2021/11/01 06:17:15;;;;;;;22.02;13.07;;;25.20;36.40;;;;;;6138954;28;83017;-61
2021/11/01 06:20:15;;;;;;;20.25;12.20;;;25.30;37.00;;;;;;6137829;28;83412;-62
2021/11/01 06:23:17;;;;;;;18.95;11.13;;;25.30;37.30;;;;;;6151904;28;83843;-61
2021/11/01 06:26:17;;;;;;;18.63;11.77;;;25.40;37.20;;;;;;6148422;28;83351;-62
2021/11/01 06:29:20;;;;;;;18.00;11.77;;;25.40;36.90;;;;;;6143423;28;84086;-62
2021/11/01 06:45:56;;;;;;;17.83;12.10;;;25.60;37.30;;;;;;6148771;28;83358;-63
2021/11/01 07:15:04;;;;;;;16.02;11.15;;;25.90;37.00;;;;;;6139483;28;86330;-61
2021/11/01 07:18:10;;;;;;;17.73;11.52;;;25.90;37.00;;;;;;6143756;28;82947;-62
2021/11/01 08:40:10;;;;;;;16.17;9.93;;;26.70;34.70;;;;;;6136912;28;83106;-62
2021/11/01 08:43:26;;;;;;;14.25;10.02;;;26.70;34.30;;;;;;6136784;28;82833;-62
2021/11/01 09:18:56;;;;;;;14.07;9.75;;;27.30;35.80;;;;;;6156546;28;81996;-64
2021/11/01 09:28:27;;;;;;;13.93;9.48;;;27.30;35.60;;;;;;6153257;28;83314;-64
2021/11/01 09:41:09;;;;;;;14.15;9.55;;;27.00;37.30;;;;;;6155339;28;80617;-65
2021/11/01 09:44:13;;;;;;;12.82;9.18;;;27.10;37.20;;;;;;6147475;28;80623;-65
2021/11/01 09:47:16;;;;;;;14.55;8.73;;;27.10;37.20;;;;;;6151015;28;80733;-64
2021/11/01 09:50:18;;;;;;;16.27;9.90;;;27.00;37.40;;;;;;6156307;28;83130;-64
2021/11/01 09:53:20;;;;;;;12.32;9.07;;;26.90;37.50;;;;;;6148460;28;81879;-63
2021/11/01 09:56:40;;;;;;;12.43;8.35;;;27.00;37.70;;;;;;6155313;28;80603;-63
2021/11/01 09:59:41;;;;;;;13.48;9.38;;;27.00;37.10;;;;;;6154511;28;80301;-63
2021/11/01 10:02:42;;;;;;;13.73;9.00;;;27.00;37.40;;;;;;6155390;28;81041;-63
2021/11/01 10:05:42;;;;;;;16.45;8.73;;;27.00;37.70;;;;;;6154193;28;80706;-63
2021/11/01 10:08:43;;;;;;;15.40;9.77;;;27.10;37.90;;;;;;6154200;28;86058;-64
2021/11/01 10:11:44;;;;;;;15.00;9.70;;;27.10;38.00;;;;;;6155503;28;81093;-64
2021/11/01 10:14:45;;;;;;;14.23;8.82;;;27.20;37.80;;;;;;6150946;28;81183;-65
2021/11/01 10:17:45;;;;;;;12.05;9.50;;;27.20;38.60;;;;;;6155077;28;80578;-64
2021/11/01 10:20:46;;;;;;;12.80;8.52;;;27.20;36.80;;;;;;6149367;28;80383;-64
2021/11/01 10:23:47;;;;;;;13.80;8.68;;;27.20;37.30;;;;;;6154324;28;81117;-64
2021/11/01 10:26:51;;;;;;;11.20;8.32;;;27.30;36.00;;;;;;6153941;28;81645;-64
2021/11/01 10:29:51;;;;;;;13.82;8.00;;;27.30;34.90;;;;;;6152471;28;80728;-64
2021/11/01 10:32:52;;;;;;;9.85;6.82;;;27.40;33.70;;;;;;6154292;28;80379;-63
2021/11/01 10:35:52;;;;;;;8.05;6.03;;;27.40;32.10;;;;;;6150458;28;80661;-64
2021/11/01 10:38:53;;;;;;;7.72;6.22;;;27.30;30.80;;;;;;6152350;28;82247;-63
2021/11/01 10:42:18;;;;;;;8.35;5.53;;;27.20;30.60;;;;;;6153280;28;80833;-62
2021/11/01 10:46:02;;;;;;;7.97;5.70;;;27.20;30.70;;;;;;6153028;28;80382;-63
2021/11/01 11:15:11;;;;;;;8.07;6.07;;;27.00;30.10;;;;;;6147797;28;80796;-63
2021/11/01 11:21:38;;;;;;;10.48;7.78;;;27.10;30.00;;;;;;6149043;28;81255;-64
2021/11/01 11:28:28;;;;;;;8.10;5.65;;;26.90;30.20;;;;;;6154586;28;81192;-65
2021/11/01 11:31:53;;;;;;;7.50;6.03;;;26.90;30.50;;;;;;6151822;28;81422;-65
2021/11/01 11:38:25;;;;;;;13.43;6.35;;;27.00;30.40;;;;;;6150571;28;80518;-67
2021/11/01 11:48:24;;;;;;;12.63;6.15;;;27.30;30.60;;;;;;6149489;28;80404;-65
2021/11/01 11:51:25;;;;;;;8.52;6.38;;;27.10;30.00;;;;;;6151318;28;81591;-66
2021/11/01 11:54:25;;;;;;;8.77;6.35;;;27.20;30.50;;;;;;6153675;28;80809;-66
2021/11/01 11:57:28;;;;;;;8.35;6.30;;;27.20;30.60;;;;;;6148908;28;80492;-65
2021/11/01 12:00:29;;;;;;;7.35;6.47;;;27.30;30.20;;;;;;6149374;28;81093;-65
2021/11/01 12:03:29;;;;;;;9.95;7.25;;;27.30;30.90;;;;;;6149561;28;80510;-66
2021/11/01 12:06:30;;;;;;;9.40;6.65;;;27.10;30.00;;;;;;6148106;28;84738;-63
2021/11/01 12:09:43;;;;;;;10.27;6.53;;;27.00;30.20;;;;;;6147539;28;80742;-65
2021/11/01 12:19:19;;;;;;;9.75;7.93;;;27.10;30.60;;;;;;6142010;28;80686;-63
2021/11/01 12:22:19;;;;;;;10.27;6.07;;;27.10;30.50;;;;;;6146627;28;80704;-65
2021/11/01 12:25:22;;;;;;;10.68;7.10;;;27.00;30.00;;;;;;6146546;28;80805;-63
2021/11/01 12:28:26;;;;;;;8.82;6.47;;;27.00;30.60;;;;;;6144218;28;80214;-63
2021/11/01 12:31:27;;;;;;;9.88;6.43;;;26.90;30.30;;;;;;6148172;28;80397;-63
2021/11/01 12:34:27;;;;;;;9.80;6.45;;;26.70;30.40;;;;;;6146569;28;80807;-64
2021/11/01 12:37:39;;;;;;;7.03;5.95;;;26.80;30.80;;;;;;6152269;28;80900;-65
2021/11/01 12:41:05;;;;;;;7.90;6.10;;;26.90;30.60;;;;;;6153607;28;80450;-66
2021/11/01 12:57:18;;;;;;;8.68;6.15;;;27.30;31.00;;;;;;6153600;28;82632;-65
2021/11/01 13:00:20;;;;;;;13.18;6.32;;;27.30;30.90;;;;;;6145008;28;80297;-67
2021/11/01 13:03:21;;;;;;;8.95;6.30;;;27.30;30.90;;;;;;6148516;28;80354;-66
2021/11/01 13:06:28;;;;;;;10.75;6.63;;;27.40;30.50;;;;;;6146424;28;80429;-66
2021/11/01 13:09:34;;;;;;;7.28;5.93;;;27.50;31.10;;;;;;6146437;28;81534;-66
2021/11/01 13:19:08;;;;;;;10.10;6.07;;;28.20;30.00;;;;;;6148086;28;80506;-66
2021/11/01 13:22:17;;;;;;;7.22;6.30;;;28.90;29.70;;;;;;6146448;28;81420;-65
2021/11/01 13:25:36;;;;;;;14.70;5.95;;;29.40;29.20;;;;;;6144203;28;83023;-64
2021/11/01 13:35:39;;;;;;;8.25;6.47;;;30.20;28.60;;;;;;6153432;28;81623;-63
2021/11/01 13:38:40;;;;;;;6.97;5.70;;;30.30;28.50;;;;;;6147023;28;81648;-64
2021/11/01 13:41:40;;;;;;;9.15;5.55;;;30.40;28.70;;;;;;6144037;28;82581;-63
2021/11/01 13:44:41;;;;;;;8.00;6.28;;;30.30;28.30;;;;;;6142594;28;81511;-62
2021/11/01 13:47:42;;;;;;;5.85;5.25;;;30.30;28.50;;;;;;6141100;28;81005;-64
2021/11/01 13:50:42;;;;;;;8.90;6.10;;;30.40;28.40;;;;;;6143324;28;81346;-64
2021/11/01 13:53:51;;;;;;;7.15;5.72;;;30.20;28.70;;;;;;6142154;28;80714;-63
2021/11/01 13:56:54;;;;;;;8.77;6.70;;;29.70;28.90;;;;;;6151364;28;85554;-64
2021/11/01 14:00:10;;;;;;;7.97;6.38;;;29.30;29.60;;;;;;6141278;28;80297;-65
2021/11/01 14:10:49;;;;;;;10.45;6.22;;;28.80;29.50;;;;;;6148696;28;83038;-64
2021/11/01 14:16:25;;;;;;;6.30;5.32;;;27.20;31.30;;;;;;6137446;28;80597;-64
2021/11/01 14:33:11;;;;;;;7.40;5.80;;;26.30;32.40;;;;;;6136988;28;84512;-62
2021/11/01 15:03:35;;;;;;;8.93;6.55;;;23.90;35.70;;;;;;6146933;28;82034;-62
2021/11/01 15:18:31;;;;;;;8.93;6.00;;;23.00;37.40;;;;;;6141308;28;81460;-64
2021/11/01 15:35:14;;;;;;;9.25;5.82;;;22.70;37.50;;;;;;6152460;28;80397;-62
2021/11/01 16:20:13;;;;;;;13.68;7.95;;;24.00;36.30;;;;;;6144838;28;80502;-63
2021/11/01 16:23:33;;;;;;;10.20;7.55;;;24.20;37.10;;;;;;6142845;28;81539;-64
2021/11/01 16:26:35;;;;;;;11.27;7.75;;;24.40;36.40;;;;;;6146796;28;80356;-62
2021/11/01 16:32:47;;;;;;;15.43;7.28;;;24.60;36.20;;;;;;6148913;28;86246;-64
2021/11/01 16:35:54;;;;;;;15.88;7.15;;;24.70;36.30;;;;;;6147094;28;81069;-64
2021/11/01 16:38:54;;;;;;;9.18;7.13;;;24.70;36.20;;;;;;6146584;28;80815;-64
2021/11/01 16:41:57;;;;;;;8.65;6.80;;;24.80;36.10;;;;;;6144225;28;83877;-63
2021/11/01 16:45:03;;;;;;;8.25;6.18;;;24.90;36.10;;;;;;6142869;28;80978;-63
2021/11/01 16:48:04;;;;;;;11.10;7.65;;;24.90;36.10;;;;;;6136464;28;81863;-64
2021/11/01 16:51:04;;;;;;;11.35;7.35;;;24.90;36.30;;;;;;6141839;28;81473;-63
2021/11/01 16:54:06;;;;;;;11.85;7.78;;;25.00;36.30;;;;;;6147162;28;80372;-63
2021/11/01 17:00:24;;;;;;;11.48;7.85;;;25.00;36.50;;;;;;6150498;28;80454;-63
2021/11/01 17:03:31;;;;;;;11.18;7.63;;;25.00;36.50;;;;;;6150162;28;82591;-65
2021/11/01 17:06:45;;;;;;;13.27;7.75;;;25.10;36.50;;;;;;6147780;28;80820;-65
2021/11/01 17:26:00;;;;;;;11.32;7.30;;;25.30;38.20;;;;;;6155799;28;80597;-63
2021/11/01 17:29:26;;;;;;;13.60;8.02;;;25.30;39.10;;;;;;6154108;28;81070;-63
2021/11/01 18:39:26;;;;;;;15.45;9.73;;;25.10;37.10;;;;;;6145536;28;80338;-64
2021/11/01 18:52:08;;;;;;;13.77;9.35;;;25.00;37.10;;;;;;6154442;28;80495;-64
2021/11/01 18:55:09;;;;;;;14.85;8.82;;;24.90;37.30;;;;;;6143695;28;80705;-64
2021/11/01 18:58:10;;;;;;;14.25;9.30;;;24.90;37.60;;;;;;6142630;28;80963;-64
2021/11/01 19:01:10;;;;;;;16.27;10.05;;;24.80;37.40;;;;;;6142303;28;80356;-64
2021/11/01 19:04:15;;;;;;;15.02;9.18;;;24.80;37.50;;;;;;6144430;28;83593;-65
2021/11/01 19:07:19;;;;;;;14.20;9.70;;;24.80;37.40;;;;;;6146501;28;83078;-65
2021/11/01 20:04:15;;;;;;;16.45;10.98;;;25.30;37.40;;;;;;6150119;28;83046;-68
2021/11/01 20:08:07;;;;;;;17.58;11.07;;;25.30;37.40;;;;;;6143241;28;85149;-67
2021/11/01 21:27:03;;;;;;;17.58;12.02;;;25.40;37.50;;;;;;6151824;28;84156;-67
2021/11/01 21:30:04;;;;;;;16.92;11.43;;;25.40;37.60;;;;;;6152729;28;82986;-68
2021/11/01 21:33:04;;;;;;;16.35;11.18;;;25.40;37.60;;;;;;6150818;28;83057;-68
2021/11/01 21:36:11;;;;;;;16.80;11.70;;;25.30;37.50;;;;;;6149978;28;83123;-68
2021/11/01 21:39:11;;;;;;;20.20;12.52;;;25.30;37.30;;;;;;6149760;28;83506;-68
2021/11/01 21:42:12;;;;;;;18.60;11.98;;;25.30;37.40;;;;;;6144233;28;83323;-68
2021/11/01 21:45:13;;;;;;;17.23;11.48;;;25.30;37.40;;;;;;6153089;28;86127;-68
2021/11/01 21:48:13;;;;;;;16.70;11.80;;;25.30;37.50;;;;;;6151101;28;82874;-68
2021/11/01 21:51:14;;;;;;;19.65;12.45;;;25.30;37.60;;;;;;6145832;28;83127;-68
2021/11/01 22:26:03;;;;;;;19.85;13.80;;;25.30;37.70;;;;;;6138951;28;82898;-64
2021/11/01 22:32:45;;;;;;;22.17;14.38;;;25.30;37.90;;;;;;6151269;28;83217;-64
2021/11/01 22:39:22;;;;;;;20.92;14.13;;;25.30;37.70;;;;;;6147744;28;83176;-64
2021/11/01 22:45:33;;;;;;;21.17;13.65;;;25.30;37.60;;;;;;6152492;28;83391;-63
2021/11/01 22:48:54;;;;;;;23.02;14.70;;;25.30;37.40;;;;;;6155901;28;84806;-64
2021/11/01 22:58:39;;;;;;;18.50;12.13;;;25.30;37.20;;;;;;6151299;28;83293;-63
2021/11/01 23:01:41;;;;;;;24.27;13.45;;;25.30;37.20;;;;;;6152172;28;85800;-63
2021/11/01 23:34:27;;;;;;;18.38;11.32;;;25.10;37.20;;;;;;6138938;28;83255;-65
2021/11/01 23:37:28;;;;;;;14.88;10.48;;;25.10;37.10;;;;;;6139915;28;83843;-65
2021/11/01 23:40:28;;;;;;;16.77;11.20;;;25.10;37.10;;;;;;6152702;28;84038;-65
2021/11/01 23:43:29;;;;;;;17.25;11.52;;;25.10;37.10;;;;;;6143427;28;84130;-65
2021/11/01 23:46:29;;;;;;;19.35;12.07;;;25.10;37.10;;;;;;6145028;28;82827;-65
2021/11/01 23:49:30;;;;;;;18.95;12.43;;;25.10;36.90;;;;;;6139303;28;83560;-65
2021/11/01 23:52:39;;;;;;;18.55;12.73;;;25.10;36.90;;;;;;6138453;28;83524;-65
2021/11/01 23:55:40;;;;;;;18.05;12.63;;;25.10;36.80;;;;;;6144254;28;84326;-65
2021/11/01 23:58:40;;;;;;;20.27;13.38;;;25.10;36.80;;;;;;6137082;28;83985;-65
